sensor_id;sensor_type;location;lat;lon;timestamp;P1;durP1;ratioP1;P2;durP2;ratioP2
4933;SDS011;2482;49.154;8.254;2023-05-29T00:00:48;7.20;;;4.80;;
4933;SDS011;2482;49.154;8.254;2023-05-29T00:03:15;9.90;;;4.47;;
4933;SDS011;2482;49.154;8.254;2023-05-29T00:05:44;10.83;;;4.67;;
4933;SDS011;2482;49.154;8.254;2023-05-29T00:08:11;7.47;;;4.73;;
4933;SDS011;2482;49.154;8.254;2023-05-29T00:10:38;15.03;;;4.70;;
4933;SDS011;2482;49.154;8.254;2023-05-29T00:13:06;4.50;;;4.10;;
4933;SDS011;2482;49.154;8.254;2023-05-29T00:15:34;6.53;;;4.10;;
4933;SDS011;2482;49.154;8.254;2023-05-29T00:18:01;7.40;;;4.20;;
4933;SDS011;2482;49.154;8.254;2023-05-29T00:20:29;8.90;;;4.60;;
4933;SDS011;2482;49.154;8.254;2023-05-29T00:22:56;7.53;;;4.60;;
4933;SDS011;2482;49.154;8.254;2023-05-29T00:25:24;5.27;;;4.03;;
4933;SDS011;2482;49.154;8.254;2023-05-29T00:27:51;9.50;;;4.50;;
4933;SDS011;2482;49.154;8.254;2023-05-29T00:30:18;9.00;;;4.30;;
4933;SDS011;2482;49.154;8.254;2023-05-29T00:32:45;8.80;;;4.00;;
4933;SDS011;2482;49.154;8.254;2023-05-29T00:35:12;5.30;;;3.70;;
4933;SDS011;2482;49.154;8.254;2023-05-29T00:37:39;10.37;;;3.77;;
4933;SDS011;2482;49.154;8.254;2023-05-29T00:40:06;4.50;;;3.70;;
4933;SDS011;2482;49.154;8.254;2023-05-29T00:42:34;5.90;;;3.60;;
4933;SDS011;2482;49.154;8.254;2023-05-29T00:45:01;5.73;;;4.10;;
4933;SDS011;2482;49.154;8.254;2023-05-29T00:47:29;8.60;;;3.80;;
4933;SDS011;2482;49.154;8.254;2023-05-29T00:49:56;7.43;;;3.40;;
4933;SDS011;2482;49.154;8.254;2023-05-29T00:52:24;3.73;;;3.00;;
4933;SDS011;2482;49.154;8.254;2023-05-29T00:54:52;5.30;;;3.47;;
4933;SDS011;2482;49.154;8.254;2023-05-29T00:57:21;5.53;;;3.83;;
4933;SDS011;2482;49.154;8.254;2023-05-29T00:59:48;5.50;;;3.50;;
4933;SDS011;2482;49.154;8.254;2023-05-29T01:02:17;7.70;;;3.27;;
4933;SDS011;2482;49.154;8.254;2023-05-29T01:04:45;5.17;;;3.40;;
4933;SDS011;2482;49.154;8.254;2023-05-29T01:07:12;6.87;;;3.97;;
4933;SDS011;2482;49.154;8.254;2023-05-29T01:09:40;8.13;;;3.40;;
4933;SDS011;2482;49.154;8.254;2023-05-29T01:23:59;6.53;;;3.60;;
4933;SDS011;2482;49.154;8.254;2023-05-29T01:29:28;6.13;;;4.10;;
4933;SDS011;2482;49.154;8.254;2023-05-29T01:31:58;8.97;;;3.87;;
4933;SDS011;2482;49.154;8.254;2023-05-29T01:34:25;7.50;;;3.80;;
4933;SDS011;2482;49.154;8.254;2023-05-29T01:36:52;7.17;;;3.80;;
4933;SDS011;2482;49.154;8.254;2023-05-29T01:39:19;7.30;;;3.40;;
4933;SDS011;2482;49.154;8.254;2023-05-29T01:41:47;6.40;;;3.47;;
4933;SDS011;2482;49.154;8.254;2023-05-29T01:44:16;4.13;;;3.47;;
4933;SDS011;2482;49.154;8.254;2023-05-29T01:46:43;4.00;;;3.13;;
4933;SDS011;2482;49.154;8.254;2023-05-29T01:49:12;6.27;;;3.90;;
4933;SDS011;2482;49.154;8.254;2023-05-29T01:51:39;5.60;;;3.23;;
4933;SDS011;2482;49.154;8.254;2023-05-29T01:54:07;6.30;;;3.53;;
4933;SDS011;2482;49.154;8.254;2023-05-29T01:56:35;7.20;;;3.60;;
4933;SDS011;2482;49.154;8.254;2023-05-29T01:59:03;9.00;;;3.50;;
4933;SDS011;2482;49.154;8.254;2023-05-29T02:01:31;8.13;;;4.10;;
4933;SDS011;2482;49.154;8.254;2023-05-29T02:03:58;7.80;;;3.57;;
4933;SDS011;2482;49.154;8.254;2023-05-29T02:06:26;6.23;;;3.43;;
4933;SDS011;2482;49.154;8.254;2023-05-29T02:08:53;5.73;;;4.10;;
4933;SDS011;2482;49.154;8.254;2023-05-29T02:11:19;8.97;;;3.83;;
4933;SDS011;2482;49.154;8.254;2023-05-29T02:13:48;6.47;;;3.53;;
4933;SDS011;2482;49.154;8.254;2023-05-29T02:16:15;6.17;;;3.40;;
4933;SDS011;2482;49.154;8.254;2023-05-29T02:18:43;6.23;;;3.53;;
4933;SDS011;2482;49.154;8.254;2023-05-29T02:21:10;5.60;;;3.70;;
4933;SDS011;2482;49.154;8.254;2023-05-29T02:23:38;5.27;;;3.23;;
4933;SDS011;2482;49.154;8.254;2023-05-29T02:26:05;9.57;;;3.10;;
4933;SDS011;2482;49.154;8.254;2023-05-29T02:28:33;5.73;;;3.57;;
4933;SDS011;2482;49.154;8.254;2023-05-29T02:31:02;9.70;;;4.30;;
4933;SDS011;2482;49.154;8.254;2023-05-29T02:33:29;5.70;;;3.57;;
4933;SDS011;2482;49.154;8.254;2023-05-29T02:35:59;8.40;;;3.27;;
4933;SDS011;2482;49.154;8.254;2023-05-29T02:38:26;7.33;;;3.93;;
4933;SDS011;2482;49.154;8.254;2023-05-29T02:40:53;6.60;;;3.70;;
4933;SDS011;2482;49.154;8.254;2023-05-29T02:43:21;8.47;;;3.77;;
4933;SDS011;2482;49.154;8.254;2023-05-29T02:45:48;5.30;;;3.20;;
4933;SDS011;2482;49.154;8.254;2023-05-29T02:48:15;6.73;;;4.10;;
4933;SDS011;2482;49.154;8.254;2023-05-29T02:50:42;5.93;;;3.30;;
4933;SDS011;2482;49.154;8.254;2023-05-29T02:53:09;10.53;;;4.00;;
4933;SDS011;2482;49.154;8.254;2023-05-29T02:55:36;9.60;;;3.80;;
4933;SDS011;2482;49.154;8.254;2023-05-29T02:58:03;10.10;;;4.07;;
4933;SDS011;2482;49.154;8.254;2023-05-29T03:00:30;5.80;;;3.70;;
4933;SDS011;2482;49.154;8.254;2023-05-29T03:02:57;8.30;;;3.47;;
4933;SDS011;2482;49.154;8.254;2023-05-29T03:05:25;5.70;;;3.80;;
4933;SDS011;2482;49.154;8.254;2023-05-29T03:07:52;8.17;;;4.80;;
4933;SDS011;2482;49.154;8.254;2023-05-29T03:10:19;6.50;;;3.57;;
4933;SDS011;2482;49.154;8.254;2023-05-29T03:12:46;7.07;;;3.60;;
4933;SDS011;2482;49.154;8.254;2023-05-29T03:15:14;9.10;;;3.50;;
4933;SDS011;2482;49.154;8.254;2023-05-29T03:17:41;4.33;;;3.07;;
4933;SDS011;2482;49.154;8.254;2023-05-29T03:20:08;5.53;;;3.33;;
4933;SDS011;2482;49.154;8.254;2023-05-29T03:22:37;4.73;;;3.50;;
4933;SDS011;2482;49.154;8.254;2023-05-29T03:25:04;7.80;;;3.80;;
4933;SDS011;2482;49.154;8.254;2023-05-29T03:27:32;6.93;;;4.00;;
4933;SDS011;2482;49.154;8.254;2023-05-29T03:29:59;11.57;;;4.70;;
4933;SDS011;2482;49.154;8.254;2023-05-29T03:32:26;6.13;;;3.97;;
4933;SDS011;2482;49.154;8.254;2023-05-29T03:34:53;5.73;;;3.10;;
4933;SDS011;2482;49.154;8.254;2023-05-29T03:37:20;4.80;;;3.20;;
4933;SDS011;2482;49.154;8.254;2023-05-29T03:39:47;6.00;;;3.77;;
4933;SDS011;2482;49.154;8.254;2023-05-29T03:42:15;5.87;;;3.33;;
4933;SDS011;2482;49.154;8.254;2023-05-29T03:44:42;5.40;;;3.30;;
4933;SDS011;2482;49.154;8.254;2023-05-29T03:47:09;3.93;;;3.03;;
4933;SDS011;2482;49.154;8.254;2023-05-29T03:49:36;5.90;;;3.77;;
4933;SDS011;2482;49.154;8.254;2023-05-29T03:52:03;7.70;;;3.90;;
4933;SDS011;2482;49.154;8.254;2023-05-29T03:54:31;5.30;;;3.50;;
4933;SDS011;2482;49.154;8.254;2023-05-29T03:56:59;9.40;;;3.70;;
4933;SDS011;2482;49.154;8.254;2023-05-29T03:59:26;4.80;;;3.20;;
4933;SDS011;2482;49.154;8.254;2023-05-29T04:01:53;6.87;;;3.27;;
4933;SDS011;2482;49.154;8.254;2023-05-29T04:04:20;6.83;;;3.60;;
4933;SDS011;2482;49.154;8.254;2023-05-29T04:06:47;6.77;;;4.27;;
4933;SDS011;2482;49.154;8.254;2023-05-29T04:09:15;7.53;;;3.77;;
4933;SDS011;2482;49.154;8.254;2023-05-29T04:11:42;7.27;;;3.50;;
4933;SDS011;2482;49.154;8.254;2023-05-29T04:14:10;5.43;;;3.57;;
4933;SDS011;2482;49.154;8.254;2023-05-29T04:16:37;8.17;;;3.80;;
4933;SDS011;2482;49.154;8.254;2023-05-29T04:19:04;5.67;;;3.67;;
4933;SDS011;2482;49.154;8.254;2023-05-29T04:21:32;9.37;;;3.60;;
4933;SDS011;2482;49.154;8.254;2023-05-29T04:23:59;5.83;;;3.50;;
4933;SDS011;2482;49.154;8.254;2023-05-29T04:26:26;7.13;;;4.37;;
4933;SDS011;2482;49.154;8.254;2023-05-29T04:28:53;8.07;;;4.27;;
4933;SDS011;2482;49.154;8.254;2023-05-29T04:31:25;7.93;;;4.37;;
4933;SDS011;2482;49.154;8.254;2023-05-29T04:33:52;5.10;;;3.73;;
4933;SDS011;2482;49.154;8.254;2023-05-29T04:36:22;10.50;;;4.17;;
4933;SDS011;2482;49.154;8.254;2023-05-29T04:38:53;6.00;;;3.20;;
4933;SDS011;2482;49.154;8.254;2023-05-29T04:41:20;6.63;;;3.63;;
4933;SDS011;2482;49.154;8.254;2023-05-29T04:43:55;9.13;;;4.03;;
4933;SDS011;2482;49.154;8.254;2023-05-29T04:46:23;6.93;;;3.40;;
4933;SDS011;2482;49.154;8.254;2023-05-29T04:48:51;6.77;;;3.43;;
4933;SDS011;2482;49.154;8.254;2023-05-29T04:51:20;7.30;;;3.77;;
4933;SDS011;2482;49.154;8.254;2023-05-29T04:53:48;10.47;;;3.87;;
4933;SDS011;2482;49.154;8.254;2023-05-29T04:56:17;6.90;;;3.63;;
4933;SDS011;2482;49.154;8.254;2023-05-29T04:58:45;5.93;;;3.57;;
4933;SDS011;2482;49.154;8.254;2023-05-29T05:01:12;5.27;;;3.60;;
4933;SDS011;2482;49.154;8.254;2023-05-29T05:03:40;6.13;;;3.43;;
4933;SDS011;2482;49.154;8.254;2023-05-29T05:06:08;11.37;;;3.80;;
4933;SDS011;2482;49.154;8.254;2023-05-29T05:08:35;10.33;;;2.90;;
4933;SDS011;2482;49.154;8.254;2023-05-29T05:11:02;8.27;;;3.67;;
4933;SDS011;2482;49.154;8.254;2023-05-29T05:13:30;6.80;;;3.77;;
4933;SDS011;2482;49.154;8.254;2023-05-29T05:15:57;6.00;;;3.20;;
4933;SDS011;2482;49.154;8.254;2023-05-29T05:18:24;4.30;;;3.07;;
4933;SDS011;2482;49.154;8.254;2023-05-29T05:20:51;5.73;;;3.60;;
4933;SDS011;2482;49.154;8.254;2023-05-29T05:23:18;5.07;;;3.53;;
4933;SDS011;2482;49.154;8.254;2023-05-29T05:25:45;5.37;;;3.50;;
4933;SDS011;2482;49.154;8.254;2023-05-29T05:28:12;8.63;;;3.70;;
4933;SDS011;2482;49.154;8.254;2023-05-29T05:30:39;3.23;;;2.93;;
4933;SDS011;2482;49.154;8.254;2023-05-29T05:33:06;6.47;;;3.80;;
4933;SDS011;2482;49.154;8.254;2023-05-29T05:35:33;6.33;;;3.47;;
4933;SDS011;2482;49.154;8.254;2023-05-29T05:38:00;9.80;;;3.63;;
4933;SDS011;2482;49.154;8.254;2023-05-29T05:40:28;6.93;;;3.50;;
4933;SDS011;2482;49.154;8.254;2023-05-29T05:42:55;6.30;;;3.10;;
4933;SDS011;2482;49.154;8.254;2023-05-29T05:45:22;7.13;;;4.00;;
4933;SDS011;2482;49.154;8.254;2023-05-29T05:47:49;8.30;;;3.60;;
4933;SDS011;2482;49.154;8.254;2023-05-29T05:50:16;5.53;;;3.37;;
4933;SDS011;2482;49.154;8.254;2023-05-29T05:52:43;10.90;;;3.63;;
4933;SDS011;2482;49.154;8.254;2023-05-29T05:55:10;8.23;;;3.80;;
4933;SDS011;2482;49.154;8.254;2023-05-29T05:57:37;7.10;;;3.83;;
4933;SDS011;2482;49.154;8.254;2023-05-29T06:00:04;6.33;;;3.70;;
4933;SDS011;2482;49.154;8.254;2023-05-29T06:02:39;4.97;;;3.53;;
4933;SDS011;2482;49.154;8.254;2023-05-29T06:05:09;10.83;;;4.03;;
4933;SDS011;2482;49.154;8.254;2023-05-29T06:07:36;6.17;;;3.63;;
4933;SDS011;2482;49.154;8.254;2023-05-29T06:10:04;5.93;;;3.30;;
4933;SDS011;2482;49.154;8.254;2023-05-29T06:12:32;7.73;;;3.80;;
4933;SDS011;2482;49.154;8.254;2023-05-29T06:15:00;8.07;;;3.63;;
4933;SDS011;2482;49.154;8.254;2023-05-29T06:17:29;7.03;;;3.50;;
4933;SDS011;2482;49.154;8.254;2023-05-29T06:19:56;7.10;;;4.03;;
4933;SDS011;2482;49.154;8.254;2023-05-29T06:22:23;9.00;;;4.00;;
4933;SDS011;2482;49.154;8.254;2023-05-29T06:24:49;11.00;;;3.80;;
4933;SDS011;2482;49.154;8.254;2023-05-29T06:27:17;9.87;;;3.27;;
4933;SDS011;2482;49.154;8.254;2023-05-29T06:29:49;5.60;;;3.73;;
4933;SDS011;2482;49.154;8.254;2023-05-29T06:32:16;9.97;;;4.30;;
4933;SDS011;2482;49.154;8.254;2023-05-29T06:34:43;4.30;;;3.00;;
4933;SDS011;2482;49.154;8.254;2023-05-29T06:37:10;7.90;;;3.20;;
4933;SDS011;2482;49.154;8.254;2023-05-29T06:39:37;9.30;;;3.47;;
4933;SDS011;2482;49.154;8.254;2023-05-29T06:42:08;7.77;;;3.23;;
4933;SDS011;2482;49.154;8.254;2023-05-29T06:44:35;5.80;;;3.20;;
4933;SDS011;2482;49.154;8.254;2023-05-29T06:47:02;5.17;;;3.07;;
4933;SDS011;2482;49.154;8.254;2023-05-29T06:49:30;7.83;;;2.80;;
4933;SDS011;2482;49.154;8.254;2023-05-29T06:51:57;6.17;;;3.53;;
4933;SDS011;2482;49.154;8.254;2023-05-29T06:54:24;7.10;;;3.37;;
4933;SDS011;2482;49.154;8.254;2023-05-29T06:56:51;6.17;;;3.53;;
4933;SDS011;2482;49.154;8.254;2023-05-29T06:59:35;4.63;;;3.20;;
4933;SDS011;2482;49.154;8.254;2023-05-29T07:02:02;8.07;;;4.20;;
4933;SDS011;2482;49.154;8.254;2023-05-29T07:04:29;6.27;;;3.70;;
4933;SDS011;2482;49.154;8.254;2023-05-29T07:06:56;6.37;;;3.73;;
4933;SDS011;2482;49.154;8.254;2023-05-29T07:09:23;7.50;;;3.20;;
4933;SDS011;2482;49.154;8.254;2023-05-29T07:11:51;4.27;;;3.30;;
4933;SDS011;2482;49.154;8.254;2023-05-29T07:14:18;6.37;;;3.70;;
4933;SDS011;2482;49.154;8.254;2023-05-29T07:16:46;7.67;;;3.60;;
4933;SDS011;2482;49.154;8.254;2023-05-29T07:19:13;6.13;;;3.20;;
4933;SDS011;2482;49.154;8.254;2023-05-29T07:21:47;5.50;;;3.10;;
4933;SDS011;2482;49.154;8.254;2023-05-29T07:24:15;6.00;;;3.60;;
4933;SDS011;2482;49.154;8.254;2023-05-29T07:26:42;7.93;;;3.90;;
4933;SDS011;2482;49.154;8.254;2023-05-29T07:29:09;8.63;;;3.53;;
4933;SDS011;2482;49.154;8.254;2023-05-29T07:31:38;7.40;;;3.40;;
4933;SDS011;2482;49.154;8.254;2023-05-29T07:34:06;6.20;;;3.57;;
4933;SDS011;2482;49.154;8.254;2023-05-29T07:36:34;10.33;;;3.37;;
4933;SDS011;2482;49.154;8.254;2023-05-29T07:39:02;9.40;;;3.43;;
4933;SDS011;2482;49.154;8.254;2023-05-29T07:41:31;4.83;;;3.60;;
4933;SDS011;2482;49.154;8.254;2023-05-29T07:43:59;8.93;;;3.30;;
4933;SDS011;2482;49.154;8.254;2023-05-29T07:46:26;4.90;;;3.40;;
4933;SDS011;2482;49.154;8.254;2023-05-29T07:48:53;4.90;;;3.13;;
4933;SDS011;2482;49.154;8.254;2023-05-29T07:51:20;8.23;;;3.73;;
4933;SDS011;2482;49.154;8.254;2023-05-29T07:53:47;5.13;;;3.20;;
4933;SDS011;2482;49.154;8.254;2023-05-29T07:56:13;10.23;;;3.83;;
4933;SDS011;2482;49.154;8.254;2023-05-29T07:58:43;7.73;;;3.30;;
4933;SDS011;2482;49.154;8.254;2023-05-29T08:01:10;7.47;;;4.27;;
4933;SDS011;2482;49.154;8.254;2023-05-29T08:03:37;6.90;;;3.17;;
4933;SDS011;2482;49.154;8.254;2023-05-29T08:06:04;9.90;;;3.87;;
4933;SDS011;2482;49.154;8.254;2023-05-29T08:08:31;5.63;;;2.90;;
4933;SDS011;2482;49.154;8.254;2023-05-29T08:10:58;5.97;;;4.10;;
4933;SDS011;2482;49.154;8.254;2023-05-29T08:13:25;9.30;;;3.53;;
4933;SDS011;2482;49.154;8.254;2023-05-29T08:15:53;7.50;;;3.53;;
4933;SDS011;2482;49.154;8.254;2023-05-29T08:18:20;4.73;;;3.00;;
4933;SDS011;2482;49.154;8.254;2023-05-29T08:20:47;7.40;;;4.03;;
4933;SDS011;2482;49.154;8.254;2023-05-29T08:23:14;7.40;;;3.80;;
4933;SDS011;2482;49.154;8.254;2023-05-29T08:25:42;8.17;;;3.80;;
4933;SDS011;2482;49.154;8.254;2023-05-29T08:28:09;7.03;;;3.37;;
4933;SDS011;2482;49.154;8.254;2023-05-29T08:30:36;5.70;;;3.20;;
4933;SDS011;2482;49.154;8.254;2023-05-29T08:33:05;7.57;;;3.87;;
4933;SDS011;2482;49.154;8.254;2023-05-29T08:35:33;8.17;;;3.90;;
4933;SDS011;2482;49.154;8.254;2023-05-29T08:38:00;6.60;;;3.80;;
4933;SDS011;2482;49.154;8.254;2023-05-29T08:40:27;7.80;;;3.47;;
4933;SDS011;2482;49.154;8.254;2023-05-29T08:42:58;6.20;;;3.43;;
4933;SDS011;2482;49.154;8.254;2023-05-29T08:45:32;6.97;;;3.87;;
4933;SDS011;2482;49.154;8.254;2023-05-29T08:48:01;5.57;;;3.47;;
4933;SDS011;2482;49.154;8.254;2023-05-29T08:50:29;6.27;;;3.70;;
4933;SDS011;2482;49.154;8.254;2023-05-29T08:52:56;6.43;;;3.90;;
4933;SDS011;2482;49.154;8.254;2023-05-29T08:55:24;8.70;;;3.93;;
4933;SDS011;2482;49.154;8.254;2023-05-29T08:57:51;7.60;;;3.90;;
4933;SDS011;2482;49.154;8.254;2023-05-29T09:00:18;6.07;;;3.30;;
4933;SDS011;2482;49.154;8.254;2023-05-29T09:02:46;6.33;;;3.33;;
4933;SDS011;2482;49.154;8.254;2023-05-29T09:05:13;6.23;;;3.60;;
4933;SDS011;2482;49.154;8.254;2023-05-29T09:07:40;7.07;;;4.30;;
4933;SDS011;2482;49.154;8.254;2023-05-29T09:10:08;6.50;;;4.30;;
4933;SDS011;2482;49.154;8.254;2023-05-29T09:12:36;12.63;;;4.10;;
4933;SDS011;2482;49.154;8.254;2023-05-29T09:15:05;5.77;;;3.77;;
4933;SDS011;2482;49.154;8.254;2023-05-29T09:17:54;6.97;;;3.20;;
4933;SDS011;2482;49.154;8.254;2023-05-29T09:20:26;5.50;;;3.30;;
4933;SDS011;2482;49.154;8.254;2023-05-29T09:22:54;6.03;;;3.80;;
4933;SDS011;2482;49.154;8.254;2023-05-29T09:25:31;8.63;;;3.67;;
4933;SDS011;2482;49.154;8.254;2023-05-29T09:28:02;7.47;;;3.57;;
4933;SDS011;2482;49.154;8.254;2023-05-29T09:33:46;3.87;;;3.20;;
4933;SDS011;2482;49.154;8.254;2023-05-29T09:36:21;6.07;;;3.90;;
4933;SDS011;2482;49.154;8.254;2023-05-29T09:38:49;7.97;;;3.43;;
4933;SDS011;2482;49.154;8.254;2023-05-29T09:41:25;5.30;;;3.50;;
4933;SDS011;2482;49.154;8.254;2023-05-29T09:43:52;4.10;;;3.00;;
4933;SDS011;2482;49.154;8.254;2023-05-29T09:46:22;5.63;;;4.07;;
4933;SDS011;2482;49.154;8.254;2023-05-29T09:48:49;5.23;;;3.60;;
4933;SDS011;2482;49.154;8.254;2023-05-29T09:51:22;5.20;;;3.60;;
4933;SDS011;2482;49.154;8.254;2023-05-29T09:53:52;8.20;;;3.50;;
4933;SDS011;2482;49.154;8.254;2023-05-29T09:56:21;8.30;;;3.47;;
4933;SDS011;2482;49.154;8.254;2023-05-29T09:58:51;5.23;;;3.67;;
4933;SDS011;2482;49.154;8.254;2023-05-29T10:01:19;3.93;;;3.07;;
4933;SDS011;2482;49.154;8.254;2023-05-29T10:03:48;7.30;;;3.50;;
4933;SDS011;2482;49.154;8.254;2023-05-29T10:06:16;6.43;;;3.30;;
4933;SDS011;2482;49.154;8.254;2023-05-29T10:08:47;4.57;;;3.50;;
4933;SDS011;2482;49.154;8.254;2023-05-29T10:11:21;4.30;;;3.00;;
4933;SDS011;2482;49.154;8.254;2023-05-29T10:13:52;4.67;;;3.40;;
4933;SDS011;2482;49.154;8.254;2023-05-29T10:16:23;7.03;;;3.80;;
4933;SDS011;2482;49.154;8.254;2023-05-29T10:18:56;11.50;;;4.27;;
4933;SDS011;2482;49.154;8.254;2023-05-29T10:21:25;5.40;;;3.40;;
4933;SDS011;2482;49.154;8.254;2023-05-29T10:23:55;6.60;;;3.30;;
4933;SDS011;2482;49.154;8.254;2023-05-29T10:26:24;7.07;;;3.70;;
4933;SDS011;2482;49.154;8.254;2023-05-29T10:37:18;7.83;;;3.20;;
4933;SDS011;2482;49.154;8.254;2023-05-29T10:40:03;5.97;;;2.90;;
4933;SDS011;2482;49.154;8.254;2023-05-29T10:42:47;3.70;;;2.83;;
4933;SDS011;2482;49.154;8.254;2023-05-29T10:53:09;4.67;;;3.03;;
4933;SDS011;2482;49.154;8.254;2023-05-29T10:55:37;6.40;;;3.33;;
4933;SDS011;2482;49.154;8.254;2023-05-29T10:58:13;9.60;;;3.20;;
4933;SDS011;2482;49.154;8.254;2023-05-29T11:00:51;4.90;;;3.00;;
4933;SDS011;2482;49.154;8.254;2023-05-29T11:03:22;8.33;;;3.57;;
4933;SDS011;2482;49.154;8.254;2023-05-29T11:06:01;9.27;;;3.30;;
4933;SDS011;2482;49.154;8.254;2023-05-29T11:09:25;4.10;;;2.87;;
4933;SDS011;2482;49.154;8.254;2023-05-29T11:13:55;5.23;;;3.03;;
4933;SDS011;2482;49.154;8.254;2023-05-29T11:18:56;8.13;;;3.07;;
4933;SDS011;2482;49.154;8.254;2023-05-29T11:24:47;4.90;;;2.57;;
4933;SDS011;2482;49.154;8.254;2023-05-29T11:27:16;5.27;;;2.60;;
4933;SDS011;2482;49.154;8.254;2023-05-29T11:29:43;6.03;;;2.80;;
4933;SDS011;2482;49.154;8.254;2023-05-29T11:32:12;5.37;;;3.07;;
4933;SDS011;2482;49.154;8.254;2023-05-29T11:34:43;4.97;;;2.70;;
4933;SDS011;2482;49.154;8.254;2023-05-29T11:37:13;9.77;;;4.00;;
4933;SDS011;2482;49.154;8.254;2023-05-29T11:39:41;5.83;;;3.07;;
4933;SDS011;2482;49.154;8.254;2023-05-29T11:42:08;7.27;;;3.20;;
4933;SDS011;2482;49.154;8.254;2023-05-29T11:44:35;5.30;;;2.93;;
4933;SDS011;2482;49.154;8.254;2023-05-29T11:47:03;6.30;;;3.07;;
4933;SDS011;2482;49.154;8.254;2023-05-29T11:49:39;3.87;;;3.30;;
4933;SDS011;2482;49.154;8.254;2023-05-29T11:52:07;5.33;;;3.20;;
4933;SDS011;2482;49.154;8.254;2023-05-29T11:54:43;7.07;;;3.00;;
4933;SDS011;2482;49.154;8.254;2023-05-29T11:59:49;7.00;;;3.87;;
4933;SDS011;2482;49.154;8.254;2023-05-29T12:02:18;7.43;;;3.80;;
4933;SDS011;2482;49.154;8.254;2023-05-29T12:05:02;8.90;;;3.67;;
4933;SDS011;2482;49.154;8.254;2023-05-29T12:07:31;7.20;;;3.20;;
4933;SDS011;2482;49.154;8.254;2023-05-29T12:10:15;6.27;;;3.37;;
4933;SDS011;2482;49.154;8.254;2023-05-29T12:12:47;5.63;;;3.47;;
4933;SDS011;2482;49.154;8.254;2023-05-29T12:15:18;8.57;;;3.27;;
4933;SDS011;2482;49.154;8.254;2023-05-29T12:17:46;6.20;;;3.23;;
4933;SDS011;2482;49.154;8.254;2023-05-29T12:20:14;4.10;;;3.10;;
4933;SDS011;2482;49.154;8.254;2023-05-29T12:22:43;3.70;;;2.70;;
4933;SDS011;2482;49.154;8.254;2023-05-29T12:25:12;5.73;;;2.90;;
4933;SDS011;2482;49.154;8.254;2023-05-29T12:27:43;5.10;;;3.17;;
4933;SDS011;2482;49.154;8.254;2023-05-29T12:32:58;6.47;;;2.93;;
4933;SDS011;2482;49.154;8.254;2023-05-29T12:35:29;8.90;;;3.57;;
4933;SDS011;2482;49.154;8.254;2023-05-29T12:40:29;4.53;;;3.23;;
4933;SDS011;2482;49.154;8.254;2023-05-29T12:45:29;6.07;;;3.20;;
4933;SDS011;2482;49.154;8.254;2023-05-29T12:47:59;4.13;;;2.77;;
4933;SDS011;2482;49.154;8.254;2023-05-29T12:50:30;4.80;;;3.30;;
4933;SDS011;2482;49.154;8.254;2023-05-29T12:53:07;10.53;;;3.33;;
4933;SDS011;2482;49.154;8.254;2023-05-29T12:55:37;5.60;;;3.47;;
4933;SDS011;2482;49.154;8.254;2023-05-29T12:58:09;5.20;;;3.10;;
4933;SDS011;2482;49.154;8.254;2023-05-29T13:00:41;4.10;;;3.00;;
4933;SDS011;2482;49.154;8.254;2023-05-29T13:03:10;4.20;;;2.90;;
4933;SDS011;2482;49.154;8.254;2023-05-29T13:05:38;4.50;;;3.00;;
4933;SDS011;2482;49.154;8.254;2023-05-29T13:08:06;3.73;;;3.10;;
4933;SDS011;2482;49.154;8.254;2023-05-29T13:10:36;5.63;;;3.67;;
4933;SDS011;2482;49.154;8.254;2023-05-29T13:13:03;4.23;;;3.73;;
4933;SDS011;2482;49.154;8.254;2023-05-29T13:15:30;5.10;;;3.10;;
4933;SDS011;2482;49.154;8.254;2023-05-29T13:17:59;6.53;;;3.50;;
4933;SDS011;2482;49.154;8.254;2023-05-29T13:20:27;6.47;;;3.07;;
4933;SDS011;2482;49.154;8.254;2023-05-29T13:22:54;9.60;;;3.37;;
4933;SDS011;2482;49.154;8.254;2023-05-29T13:25:23;3.20;;;2.90;;
4933;SDS011;2482;49.154;8.254;2023-05-29T13:27:52;4.37;;;3.23;;
4933;SDS011;2482;49.154;8.254;2023-05-29T13:30:19;5.63;;;3.20;;
4933;SDS011;2482;49.154;8.254;2023-05-29T13:32:49;3.83;;;2.87;;
4933;SDS011;2482;49.154;8.254;2023-05-29T13:35:18;5.07;;;3.27;;
4933;SDS011;2482;49.154;8.254;2023-05-29T13:37:46;3.57;;;2.70;;
4933;SDS011;2482;49.154;8.254;2023-05-29T13:40:15;10.27;;;3.13;;
4933;SDS011;2482;49.154;8.254;2023-05-29T13:42:42;4.57;;;3.10;;
4933;SDS011;2482;49.154;8.254;2023-05-29T13:45:10;5.63;;;2.93;;
4933;SDS011;2482;49.154;8.254;2023-05-29T13:47:38;5.30;;;2.90;;
4933;SDS011;2482;49.154;8.254;2023-05-29T13:50:07;3.00;;;2.40;;
4933;SDS011;2482;49.154;8.254;2023-05-29T13:52:35;4.20;;;2.73;;
4933;SDS011;2482;49.154;8.254;2023-05-29T13:55:02;3.50;;;2.57;;
4933;SDS011;2482;49.154;8.254;2023-05-29T13:57:35;6.50;;;2.97;;
4933;SDS011;2482;49.154;8.254;2023-05-29T14:00:06;3.20;;;2.50;;
4933;SDS011;2482;49.154;8.254;2023-05-29T14:02:34;4.83;;;2.63;;
4933;SDS011;2482;49.154;8.254;2023-05-29T14:05:02;6.67;;;2.83;;
4933;SDS011;2482;49.154;8.254;2023-05-29T14:07:29;4.63;;;2.40;;
4933;SDS011;2482;49.154;8.254;2023-05-29T14:09:56;5.07;;;2.17;;
4933;SDS011;2482;49.154;8.254;2023-05-29T14:12:23;6.90;;;2.67;;
4933;SDS011;2482;49.154;8.254;2023-05-29T14:14:51;3.80;;;2.77;;
4933;SDS011;2482;49.154;8.254;2023-05-29T14:17:18;3.50;;;3.00;;
4933;SDS011;2482;49.154;8.254;2023-05-29T14:19:45;3.40;;;2.50;;
4933;SDS011;2482;49.154;8.254;2023-05-29T14:22:13;2.63;;;2.40;;
4933;SDS011;2482;49.154;8.254;2023-05-29T14:24:41;3.70;;;2.70;;
4933;SDS011;2482;49.154;8.254;2023-05-29T14:27:08;3.20;;;2.30;;
4933;SDS011;2482;49.154;8.254;2023-05-29T14:29:35;4.73;;;2.53;;
4933;SDS011;2482;49.154;8.254;2023-05-29T14:32:02;2.70;;;2.33;;
4933;SDS011;2482;49.154;8.254;2023-05-29T14:34:30;3.17;;;2.77;;
4933;SDS011;2482;49.154;8.254;2023-05-29T14:36:57;3.73;;;2.70;;
4933;SDS011;2482;49.154;8.254;2023-05-29T14:39:24;5.03;;;2.97;;
4933;SDS011;2482;49.154;8.254;2023-05-29T14:41:51;3.30;;;2.50;;
4933;SDS011;2482;49.154;8.254;2023-05-29T14:44:18;4.70;;;2.30;;
4933;SDS011;2482;49.154;8.254;2023-05-29T14:46:45;3.83;;;2.90;;
4933;SDS011;2482;49.154;8.254;2023-05-29T14:49:12;5.43;;;2.93;;
4933;SDS011;2482;49.154;8.254;2023-05-29T14:51:39;3.20;;;2.60;;
4933;SDS011;2482;49.154;8.254;2023-05-29T14:54:09;5.57;;;2.87;;
4933;SDS011;2482;49.154;8.254;2023-05-29T14:56:36;4.10;;;2.17;;
4933;SDS011;2482;49.154;8.254;2023-05-29T14:59:03;5.17;;;2.60;;
4933;SDS011;2482;49.154;8.254;2023-05-29T15:01:30;4.97;;;2.60;;
4933;SDS011;2482;49.154;8.254;2023-05-29T15:03:57;3.43;;;2.40;;
4933;SDS011;2482;49.154;8.254;2023-05-29T15:06:24;4.40;;;2.37;;
4933;SDS011;2482;49.154;8.254;2023-05-29T15:08:51;5.57;;;2.43;;
4933;SDS011;2482;49.154;8.254;2023-05-29T15:11:19;4.10;;;2.43;;
4933;SDS011;2482;49.154;8.254;2023-05-29T15:13:46;4.07;;;2.20;;
4933;SDS011;2482;49.154;8.254;2023-05-29T15:16:15;3.80;;;2.40;;
4933;SDS011;2482;49.154;8.254;2023-05-29T15:18:42;5.50;;;2.70;;
4933;SDS011;2482;49.154;8.254;2023-05-29T15:21:09;3.70;;;2.47;;
4933;SDS011;2482;49.154;8.254;2023-05-29T15:23:36;3.93;;;2.63;;
4933;SDS011;2482;49.154;8.254;2023-05-29T15:26:05;2.60;;;2.40;;
4933;SDS011;2482;49.154;8.254;2023-05-29T15:28:32;5.83;;;2.43;;
4933;SDS011;2482;49.154;8.254;2023-05-29T15:30:59;5.50;;;2.53;;
4933;SDS011;2482;49.154;8.254;2023-05-29T15:33:27;6.17;;;2.90;;
4933;SDS011;2482;49.154;8.254;2023-05-29T15:35:56;5.70;;;3.00;;
4933;SDS011;2482;49.154;8.254;2023-05-29T15:38:23;3.80;;;2.33;;
4933;SDS011;2482;49.154;8.254;2023-05-29T15:40:51;7.40;;;2.47;;
4933;SDS011;2482;49.154;8.254;2023-05-29T15:43:18;5.83;;;2.90;;
4933;SDS011;2482;49.154;8.254;2023-05-29T15:45:45;3.60;;;2.67;;
4933;SDS011;2482;49.154;8.254;2023-05-29T15:48:12;2.40;;;2.07;;
4933;SDS011;2482;49.154;8.254;2023-05-29T15:50:40;4.97;;;2.50;;
4933;SDS011;2482;49.154;8.254;2023-05-29T15:53:07;5.17;;;2.67;;
4933;SDS011;2482;49.154;8.254;2023-05-29T15:55:34;4.33;;;3.07;;
4933;SDS011;2482;49.154;8.254;2023-05-29T15:58:01;5.57;;;2.90;;
4933;SDS011;2482;49.154;8.254;2023-05-29T16:00:28;3.90;;;2.30;;
4933;SDS011;2482;49.154;8.254;2023-05-29T16:02:55;4.30;;;2.63;;
4933;SDS011;2482;49.154;8.254;2023-05-29T16:05:23;5.87;;;3.37;;
4933;SDS011;2482;49.154;8.254;2023-05-29T16:07:50;5.57;;;2.33;;
4933;SDS011;2482;49.154;8.254;2023-05-29T16:10:18;2.47;;;2.27;;
4933;SDS011;2482;49.154;8.254;2023-05-29T16:12:46;4.70;;;2.30;;
4933;SDS011;2482;49.154;8.254;2023-05-29T16:15:17;2.83;;;2.30;;